»·PEaware :: N309PE L52-L88

N309PE :: L52-L88

FLIGHT INFORMATION

Flight Status: Arrived
Operator: Privately registered:
United States
More flights under this callsign
Pilot: Mohamed K. (37627)
Aircraft: PIPER PA-28R-201 ARROW
(P28R)
More flights by this aircraft type
Origin: L52 Oceano Co
United States
Destination: L88 New Cuyama
United States
More flights between these airports :: More routes between these airports
Route: VFR
File this flight plan on PilotEdge
Remarks:
Altitude:
(Current/Filed)
7,500ft
Speed:
(Current/Filed)
120kts
Departed: 29-Dec-21 09:28 AM
Arrived: 29-Dec-21 09:58 AM
Distance/Time
Traveled:
47nm/0:29
Distance/Time
To Go:
Arrived

Flight Plot

Page will automatically refresh every two minutes.


Map Options




Map Legend


Flown Route
Filed Route
Departure Airport
Arrival Airport
Navaid (VOR, NDB)
Fix

Horizontal Profiles

Position Reports

Time Latitude Longitude Heading Altitude Ground
Speed
29-Dec-21 09:09 35.102147 -120.622311 16 17ft 0kts
29-Dec-21 09:10 35.102147 -120.622311 16 17ft 0kts
29-Dec-21 09:11 35.102147 -120.622311 16 17ft 0kts
29-Dec-21 09:12 35.102147 -120.622311 16 17ft 0kts
29-Dec-21 09:13 35.102147 -120.622311 16 17ft 0kts
29-Dec-21 09:14 35.102147 -120.622311 16 17ft 0kts
29-Dec-21 09:15 35.102147 -120.622311 16 17ft 0kts
29-Dec-21 09:16 35.102147 -120.622311 16 17ft 0kts
29-Dec-21 09:17 35.102147 -120.622311 16 17ft 0kts
29-Dec-21 09:18 35.102147 -120.622311 16 17ft 0kts
29-Dec-21 09:19 35.102147 -120.622311 16 17ft 0kts
29-Dec-21 09:20 35.102147 -120.622311 16 17ft 0kts
29-Dec-21 09:21 35.102147 -120.622311 16 17ft 0kts
29-Dec-21 09:22 35.102147 -120.622311 16 17ft 0kts
29-Dec-21 09:23 35.101951 -120.622230 215 17ft 0kts
29-Dec-21 09:24 35.101951 -120.622230 215 17ft 0kts
29-Dec-21 09:24 35.101951 -120.622230 215 17ft 0kts
29-Dec-21 09:25 35.101951 -120.622230 215 17ft 0kts
29-Dec-21 09:27 35.100945 -120.621229 123 17ft 16kts
29-Dec-21 09:28 35.100925 -120.621214 303 18ft 55kts
29-Dec-21 09:28 35.103058 -120.639086 172 731ft 96kts
29-Dec-21 09:29 35.091168 -120.609523 100 1873ft 99kts
29-Dec-21 09:30 35.084178 -120.576583 105 2986ft 101kts
29-Dec-21 09:32 35.075125 -120.537545 106 4189ft 104kts
29-Dec-21 09:33 35.066986 -120.503292 106 5134ft 105kts
29-Dec-21 09:33 35.060241 -120.474333 105 5794ft 106kts
29-Dec-21 09:34 35.052086 -120.439118 106 6482ft 109kts
29-Dec-21 09:35 35.043762 -120.403141 106 7075ft 111kts
29-Dec-21 09:36 35.035334 -120.366832 106 7482ft 119kts
29-Dec-21 09:37 35.025452 -120.326016 106 7485ft 125kts
29-Dec-21 09:38 35.015723 -120.284913 106 7480ft 126kts
29-Dec-21 09:39 35.014516 -120.243396 73 7481ft 125kts
29-Dec-21 09:40 35.031014 -120.206595 51 7477ft 124kts
29-Dec-21 09:41 35.052748 -120.173595 50 7481ft 125kts
29-Dec-21 09:42 35.074622 -120.140567 50 7486ft 125kts
29-Dec-21 09:43 35.082599 -120.102467 107 7480ft 124kts
29-Dec-21 09:44 35.070395 -120.062935 112 7481ft 123kts
29-Dec-21 09:45 35.057805 -120.024098 112 7474ft 123kts
29-Dec-21 09:46 35.045086 -119.984989 112 7477ft 125kts
29-Dec-21 09:47 35.032020 -119.945357 112 7482ft 126kts
29-Dec-21 09:48 35.017938 -119.906057 119 7479ft 126kts
29-Dec-21 09:49 34.998226 -119.870498 126 7480ft 126kts
29-Dec-21 09:50 34.977492 -119.836179 127 7216ft 126kts
29-Dec-21 09:51 34.956820 -119.802132 127 6308ft 124kts
29-Dec-21 09:52 34.936327 -119.768349 125 5388ft 124kts
29-Dec-21 09:53 34.931547 -119.728016 79 4295ft 122kts
29-Dec-21 09:54 34.926078 -119.691458 107 3726ft 100kts
29-Dec-21 09:55 34.921660 -119.658751 105 3246ft 95kts
29-Dec-21 09:56 34.933087 -119.668034 294 2637ft 81kts
29-Dec-21 09:57 34.941419 -119.689164 295 2161ft 27kts
29-Dec-21 09:58 34.942803 -119.690413 58 2151ft 0kts
29-Dec-21 09:59 34.942803 -119.690413 58 2151ft 0kts
29-Dec-21 10:00 34.942803 -119.690413 58 2151ft 0kts
29-Dec-21 10:01 34.942803 -119.690413 58 2151ft 0kts
29-Dec-21 10:02 34.942803 -119.690413 58 2151ft 0kts
29-Dec-21 10:03 34.942803 -119.690413 58 2151ft 0kts

Navigation Log

Ident Type
Flight plan parsing failed, navigation log unavailable